Time;durP1;ratioP1;P1;durP2;ratioP2;P2;SDS_P1;SDS_P2;PMS_P1;PMS_P2;Temp;Humidity;BMP_temperature;BMP_pressure;BME280_temperature;BME280_humidity;BME280_pressure;Samples;Min_cycle;Max_cycle;Signal;HPM_P1;HPM_P2
2022/12/03 00:01:17;;;;;;;60.00;34.17;;;-0.20;1.00;;;;;;6230691;28;20245;-53
2022/12/03 00:04:20;;;;;;;58.17;36.03;;;-0.10;1.00;;;;;;6234719;28;20230;-54
2022/12/03 00:07:23;;;;;;;63.00;33.93;;;-0.10;1.00;;;;;;6234821;28;20696;-51
2022/12/03 00:10:27;;;;;;;61.03;33.63;;;0.00;1.00;;;;;;6240952;28;20233;-53
2022/12/03 00:13:30;;;;;;;55.73;33.90;;;0.00;1.00;;;;;;6239619;28;20234;-53
2022/12/03 00:16:33;;;;;;;53.23;32.23;;;-0.10;1.00;;;;;;6227642;28;20238;-53
2022/12/03 00:19:36;;;;;;;58.13;33.93;;;0.00;1.00;;;;;;6238649;28;20237;-54
2022/12/03 00:22:39;;;;;;;58.07;33.23;;;-0.10;1.00;;;;;;6234165;28;20246;-55
2022/12/03 00:25:43;;;;;;;54.13;32.80;;;0.00;1.00;;;;;;6232626;28;20292;-54
2022/12/03 00:28:46;;;;;;;57.57;32.33;;;0.00;1.00;;;;;;6231014;28;20230;-51
2022/12/03 00:31:49;;;;;;;57.47;33.77;;;-0.10;1.00;;;;;;6241967;28;20234;-53
2022/12/03 00:34:52;;;;;;;59.63;34.13;;;-0.10;1.00;;;;;;6220919;28;20261;-53
2022/12/03 00:37:56;;;;;;;52.07;32.50;;;-0.10;1.00;;;;;;6243537;28;20249;-55
2022/12/03 00:41:00;;;;;;;53.37;32.70;;;-0.20;1.00;;;;;;6251368;28;20234;-53
2022/12/03 00:44:03;;;;;;;50.30;32.27;;;0.10;1.00;;;;;;6223553;28;20239;-54
2022/12/03 00:47:06;;;;;;;49.47;32.37;;;-0.20;1.00;;;;;;6241520;28;20777;-55
2022/12/03 00:50:11;;;;;;;57.50;34.80;;;0.10;1.00;;;;;;6251235;28;20237;-59
2022/12/03 00:53:14;;;;;;;53.80;33.33;;;0.10;1.00;;;;;;6242039;28;20254;-52
2022/12/03 00:56:18;;;;;;;55.37;34.60;;;-0.20;1.00;;;;;;6241965;28;20246;-53
2022/12/03 00:59:21;;;;;;;59.13;35.50;;;-0.20;1.00;;;;;;6241837;28;20619;-53
2022/12/03 01:02:24;;;;;;;51.97;33.03;;;-0.20;1.00;;;;;;6232467;28;20787;-54
2022/12/03 01:05:27;;;;;;;59.03;34.53;;;-0.10;1.00;;;;;;6222132;28;20735;-54
2022/12/03 01:08:30;;;;;;;56.07;33.97;;;-0.10;1.00;;;;;;6255218;28;20249;-54
2022/12/03 01:11:40;;;;;;;56.07;34.37;;;-0.10;1.00;;;;;;6244189;28;20457;-54
2022/12/03 01:14:43;;;;;;;54.40;33.37;;;-0.10;1.00;;;;;;6237244;28;20239;-54
2022/12/03 01:17:46;;;;;;;60.47;36.73;;;-0.20;1.00;;;;;;6251140;28;20400;-53
2022/12/03 01:20:49;;;;;;;61.57;35.67;;;-0.30;1.00;;;;;;6245674;28;20231;-53
2022/12/03 01:23:52;;;;;;;56.80;36.43;;;-0.10;1.00;;;;;;6223038;28;20723;-54
2022/12/03 01:26:56;;;;;;;56.37;35.10;;;0.00;1.00;;;;;;6245914;28;20270;-54
2022/12/03 01:29:59;;;;;;;60.80;37.20;;;0.00;1.00;;;;;;6245381;28;20238;-53
2022/12/03 01:33:01;;;;;;;67.53;37.97;;;0.00;1.00;;;;;;6242483;28;20702;-53
2022/12/03 01:36:04;;;;;;;62.67;38.00;;;0.00;1.00;;;;;;6237031;28;20858;-53
2022/12/03 01:39:07;;;;;;;64.50;36.33;;;0.00;1.00;;;;;;6245581;28;20242;-51
2022/12/03 01:42:17;;;;;;;59.07;36.93;;;0.00;1.00;;;;;;6237044;28;20242;-54
2022/12/03 01:45:22;;;;;;;58.73;35.87;;;-0.20;1.00;;;;;;6236978;28;20273;-53
2022/12/03 01:48:25;;;;;;;57.40;35.00;;;0.00;1.00;;;;;;6246564;28;20254;-54
2022/12/03 01:51:29;;;;;;;57.83;36.53;;;0.00;1.00;;;;;;6260504;28;20234;-53
2022/12/03 01:54:38;;;;;;;62.40;35.27;;;0.00;1.00;;;;;;6235462;28;20234;-54
2022/12/03 01:57:47;;;;;;;60.80;34.60;;;0.00;1.00;;;;;;6234478;28;20238;-55
2022/12/03 02:00:49;;;;;;;62.57;36.43;;;-0.20;1.00;;;;;;6223255;28;20234;-52
2022/12/03 02:03:53;;;;;;;58.83;36.00;;;-0.20;1.00;;;;;;6229466;28;20241;-53
2022/12/03 02:06:56;;;;;;;61.27;35.03;;;0.00;1.00;;;;;;6219450;28;20258;-54
2022/12/03 02:10:01;;;;;;;61.67;36.77;;;0.00;1.00;;;;;;6237146;28;20234;-53
2022/12/03 02:13:08;;;;;;;62.97;35.97;;;-0.10;1.00;;;;;;6228446;28;20239;-54
2022/12/03 02:16:11;;;;;;;60.07;35.40;;;0.00;1.00;;;;;;6244924;28;20234;-54
2022/12/03 02:19:22;;;;;;;60.37;35.47;;;0.00;1.00;;;;;;6245528;28;20242;-54
2022/12/03 02:22:37;;;;;;;58.47;35.23;;;0.00;1.00;;;;;;6232805;28;20512;-53
2022/12/03 02:25:42;;;;;;;57.90;34.43;;;0.10;1.00;;;;;;6245353;28;20234;-54
2022/12/03 02:28:45;;;;;;;61.57;36.23;;;0.10;1.00;;;;;;6247862;28;20256;-53
2022/12/03 02:31:48;;;;;;;65.70;35.33;;;0.10;1.00;;;;;;6234916;28;20255;-54
2022/12/03 02:34:51;;;;;;;63.80;36.40;;;0.20;1.00;;;;;;6235395;28;20246;-54
2022/12/03 02:37:58;;;;;;;54.30;33.27;;;0.00;1.00;;;;;;6233196;28;20246;-53
2022/12/03 02:41:05;;;;;;;62.47;34.53;;;-0.10;1.00;;;;;;6243246;28;20234;-53
2022/12/03 02:44:07;;;;;;;54.77;34.10;;;0.10;1.00;;;;;;6242482;28;20717;-58
2022/12/03 02:47:11;;;;;;;60.83;35.60;;;0.00;1.00;;;;;;6237618;28;20239;-54
2022/12/03 02:50:17;;;;;;;57.53;33.43;;;0.00;1.00;;;;;;6216024;28;23082;-57
2022/12/03 02:53:23;;;;;;;55.97;34.87;;;0.00;1.00;;;;;;6217540;28;20390;-54
2022/12/03 02:56:31;;;;;;;56.90;33.80;;;0.00;1.00;;;;;;6238841;28;20258;-53
2022/12/03 02:59:34;;;;;;;56.83;33.97;;;0.00;1.00;;;;;;6239779;28;20238;-54
2022/12/03 03:02:38;;;;;;;56.67;34.07;;;-0.10;1.00;;;;;;6233139;28;20226;-54
2022/12/03 03:05:42;;;;;;;57.53;33.53;;;0.00;1.00;;;;;;6232915;28;20728;-53
2022/12/03 03:08:45;;;;;;;59.83;34.90;;;-0.20;1.00;;;;;;6249521;28;20236;-54
2022/12/03 03:11:49;;;;;;;58.30;35.20;;;0.10;1.00;;;;;;6239288;28;20254;-54
2022/12/03 03:14:52;;;;;;;57.60;33.63;;;0.00;1.00;;;;;;6234349;28;20241;-55
2022/12/03 03:17:56;;;;;;;57.90;33.73;;;0.10;1.00;;;;;;6245755;28;20261;-54
2022/12/03 03:20:59;;;;;;;56.43;34.57;;;-0.10;1.00;;;;;;6226250;28;20794;-54
2022/12/03 03:24:02;;;;;;;62.53;35.30;;;0.00;1.00;;;;;;6240310;28;20248;-54
2022/12/03 03:27:06;;;;;;;55.47;34.10;;;-0.20;1.00;;;;;;6235344;28;20234;-53
2022/12/03 03:30:11;;;;;;;57.13;34.50;;;-0.20;1.00;;;;;;6236844;28;20734;-54
2022/12/03 03:33:15;;;;;;;58.10;35.53;;;-0.20;1.00;;;;;;6237935;28;20243;-55
2022/12/03 03:36:20;;;;;;;58.80;34.47;;;-0.10;1.00;;;;;;6236296;28;20242;-54
2022/12/03 03:39:23;;;;;;;60.50;34.83;;;0.10;1.00;;;;;;6239953;28;20752;-54
2022/12/03 03:42:27;;;;;;;60.07;34.73;;;-0.10;1.00;;;;;;6242266;28;20374;-54
2022/12/03 03:45:30;;;;;;;59.87;35.23;;;0.00;1.00;;;;;;6232469;28;20222;-55
2022/12/03 03:48:35;;;;;;;57.87;33.50;;;-0.10;1.00;;;;;;6244820;28;20516;-54
2022/12/03 03:51:39;;;;;;;59.43;35.00;;;-0.10;1.00;;;;;;6203027;28;20227;-53
2022/12/03 03:54:42;;;;;;;54.70;33.20;;;-0.10;1.00;;;;;;6240124;28;20234;-53
2022/12/03 03:57:47;;;;;;;57.67;35.20;;;0.00;1.00;;;;;;6241535;28;20242;-52
2022/12/03 04:00:50;;;;;;;58.43;33.43;;;-0.10;1.00;;;;;;6231801;28;20378;-53
2022/12/03 04:03:53;;;;;;;63.03;35.97;;;-0.20;1.00;;;;;;6234263;28;20233;-53
2022/12/03 04:06:56;;;;;;;60.20;34.87;;;0.10;1.00;;;;;;6235261;28;20254;-54
2022/12/03 04:12:53;;;;;;;56.60;34.17;;;-0.20;1.00;;;;;;6246166;28;20244;-53
2022/12/03 04:13:22;;;;;;;61.63;36.17;;;-0.30;1.00;;;;;;6227132;28;20235;-53
2022/12/03 04:16:25;;;;;;;59.47;33.90;;;-0.10;1.00;;;;;;6248654;28;20818;-53
2022/12/03 04:19:28;;;;;;;60.93;34.70;;;-0.20;1.00;;;;;;6237056;28;20270;-53
2022/12/03 04:22:39;;;;;;;59.40;35.57;;;-0.30;1.00;;;;;;6230250;28;20231;-52
2022/12/03 04:29:04;;;;;;;55.70;34.87;;;0.00;1.00;;;;;;6237091;28;20241;-52
2022/12/03 04:35:43;;;;;;;56.97;34.73;;;0.00;1.00;;;;;;6227028;28;20724;-56
2022/12/03 04:38:46;;;;;;;55.50;34.23;;;0.00;1.00;;;;;;6232068;28;20399;-53
2022/12/03 04:41:49;;;;;;;58.43;34.33;;;-0.10;1.00;;;;;;6232999;28;20599;-55
2022/12/03 04:44:53;;;;;;;56.30;33.57;;;-0.10;1.00;;;;;;6232613;28;20229;-51
2022/12/03 04:47:56;;;;;;;59.67;34.40;;;0.00;1.00;;;;;;6245783;28;20354;-54
2022/12/03 04:50:59;;;;;;;59.17;33.27;;;-0.10;1.00;;;;;;6238654;28;20775;-53
2022/12/03 04:54:02;;;;;;;57.83;33.83;;;-0.10;1.00;;;;;;6224049;28;20246;-53
2022/12/03 04:57:06;;;;;;;59.37;34.03;;;-0.20;1.00;;;;;;6243812;28;20239;-53
2022/12/03 05:00:12;;;;;;;57.60;32.77;;;-0.20;1.00;;;;;;6232481;28;20728;-54
2022/12/03 05:03:16;;;;;;;55.67;32.70;;;-0.20;1.00;;;;;;6214034;28;20613;-53
2022/12/03 05:06:19;;;;;;;55.43;33.13;;;0.10;1.00;;;;;;6230829;28;20647;-53
2022/12/03 05:09:22;;;;;;;57.60;33.83;;;-0.10;1.00;;;;;;6223258;28;20721;-53
2022/12/03 05:12:24;;;;;;;56.53;34.07;;;-0.20;1.00;;;;;;6222707;28;20862;-53
2022/12/03 05:15:29;;;;;;;55.07;34.73;;;-0.10;1.00;;;;;;6230496;28;20234;-54
2022/12/03 05:18:32;;;;;;;60.63;35.30;;;0.00;1.00;;;;;;6234187;28;20239;-54
2022/12/03 05:21:35;;;;;;;60.53;36.60;;;0.00;1.00;;;;;;6229712;28;20242;-52
2022/12/03 05:24:38;;;;;;;57.47;34.87;;;-0.10;1.00;;;;;;6229936;28;20763;-53
2022/12/03 05:27:41;;;;;;;62.10;34.07;;;0.00;1.00;;;;;;6231185;28;20504;-56
2022/12/03 05:30:45;;;;;;;68.43;35.50;;;0.00;1.00;;;;;;6233060;28;20407;-54
2022/12/03 05:33:48;;;;;;;64.67;35.83;;;-0.20;1.00;;;;;;6212448;28;20223;-53
2022/12/03 05:36:51;;;;;;;64.87;34.73;;;-0.30;1.00;;;;;;6229279;28;20242;-53
2022/12/03 05:39:54;;;;;;;59.50;34.77;;;0.00;1.00;;;;;;6238613;28;20469;-53
2022/12/03 05:42:59;;;;;;;59.80;36.07;;;-0.10;1.00;;;;;;6228057;28;20621;-54
2022/12/03 05:46:04;;;;;;;57.30;34.87;;;-0.10;1.00;;;;;;6235602;28;20728;-55
2022/12/03 05:49:07;;;;;;;57.80;34.70;;;-0.20;1.00;;;;;;6226168;28;20628;-53
2022/12/03 05:52:10;;;;;;;59.57;36.43;;;-0.10;1.00;;;;;;6229711;28;20227;-53
2022/12/03 05:55:13;;;;;;;60.63;34.23;;;-0.30;1.00;;;;;;6230156;28;20234;-53
2022/12/03 05:58:16;;;;;;;66.20;36.87;;;-0.10;1.00;;;;;;6229813;28;20239;-57
2022/12/03 06:01:20;;;;;;;66.67;36.10;;;-0.20;1.00;;;;;;6236126;28;20239;-53
2022/12/03 06:04:23;;;;;;;68.43;35.43;;;-0.10;1.00;;;;;;6230312;28;20234;-53
2022/12/03 06:07:26;;;;;;;56.97;34.87;;;-0.10;1.00;;;;;;6240134;28;20242;-54
2022/12/03 06:10:29;;;;;;;54.77;35.23;;;-0.20;1.00;;;;;;6239844;28;20255;-54
2022/12/03 06:13:32;;;;;;;56.67;34.90;;;-0.30;1.00;;;;;;6238099;28;20253;-53
2022/12/03 06:16:37;;;;;;;58.23;36.47;;;0.00;1.00;;;;;;6239139;28;20729;-53
2022/12/03 06:19:40;;;;;;;65.03;35.53;;;-0.30;1.00;;;;;;6232107;28;20250;-53
2022/12/03 06:22:43;;;;;;;63.57;36.00;;;-0.20;1.00;;;;;;6226624;28;20230;-53
2022/12/03 06:25:46;;;;;;;61.03;35.30;;;-0.30;1.00;;;;;;6238570;28;20374;-54
2022/12/03 06:28:49;;;;;;;61.73;36.10;;;-0.50;1.00;;;;;;6241703;28;20242;-53
2022/12/03 06:31:53;;;;;;;61.87;35.13;;;-0.30;1.00;;;;;;6233835;28;20235;-52
2022/12/03 06:34:56;;;;;;;68.63;37.10;;;-0.50;1.00;;;;;;6236241;28;20272;-58
2022/12/03 06:37:59;;;;;;;68.83;38.13;;;-0.40;1.00;;;;;;6232444;28;20721;-52
2022/12/03 06:41:02;;;;;;;62.43;36.90;;;-0.30;1.00;;;;;;6238055;28;20234;-54
2022/12/03 06:44:06;;;;;;;63.77;35.83;;;-0.30;1.00;;;;;;6235321;28;20757;-53
2022/12/03 06:47:11;;;;;;;63.80;36.67;;;-0.40;1.00;;;;;;6246888;28;20612;-54
2022/12/03 06:50:14;;;;;;;71.27;37.13;;;-0.30;1.00;;;;;;6235210;28;20243;-50
2022/12/03 06:53:17;;;;;;;64.10;36.63;;;-0.20;1.00;;;;;;6230184;28;20420;-51
2022/12/03 06:56:20;;;;;;;64.77;35.97;;;-0.30;1.00;;;;;;6240572;28;20245;-53
2022/12/03 06:59:24;;;;;;;63.90;36.73;;;-0.10;1.00;;;;;;6236964;28;20325;-53
2022/12/03 07:02:28;;;;;;;69.87;36.50;;;-0.20;1.00;;;;;;6230091;28;20237;-54
2022/12/03 07:05:31;;;;;;;71.47;37.80;;;-0.30;1.00;;;;;;6241746;28;20250;-53
2022/12/03 07:08:35;;;;;;;65.03;36.07;;;-0.10;1.00;;;;;;6233551;28;20239;-54
2022/12/03 07:11:40;;;;;;;63.40;37.07;;;-0.10;1.00;;;;;;6245717;28;20306;-53
2022/12/03 07:14:43;;;;;;;64.33;36.23;;;-0.20;1.00;;;;;;6228836;28;20241;-53
2022/12/03 07:17:48;;;;;;;61.93;36.20;;;-0.30;1.00;;;;;;6230950;28;20227;-53
2022/12/03 07:20:51;;;;;;;66.33;37.53;;;-0.20;1.00;;;;;;6229612;28;20273;-54
2022/12/03 07:23:53;;;;;;;65.87;36.57;;;-0.30;1.00;;;;;;6225548;28;20264;-53
2022/12/03 07:26:56;;;;;;;65.83;36.93;;;-0.20;1.00;;;;;;6236854;28;20747;-55
2022/12/03 07:29:59;;;;;;;66.60;36.40;;;-0.50;1.00;;;;;;6231252;28;20751;-53
2022/12/03 07:33:04;;;;;;;67.43;39.17;;;-0.20;1.00;;;;;;6233843;28;20249;-53
2022/12/03 07:36:07;;;;;;;60.67;36.53;;;-0.40;1.00;;;;;;6233963;28;20311;-54
2022/12/03 07:39:10;;;;;;;69.87;37.93;;;-0.30;1.00;;;;;;6235191;28;20235;-54
2022/12/03 07:42:13;;;;;;;68.20;37.70;;;-0.30;1.00;;;;;;6237295;28;20242;-54
2022/12/03 07:45:16;;;;;;;66.13;38.37;;;-0.40;1.00;;;;;;6241316;28;20231;-54
2022/12/03 07:48:21;;;;;;;65.90;37.03;;;-0.40;1.00;;;;;;6237376;28;20239;-53
2022/12/03 07:51:24;;;;;;;73.53;38.13;;;-0.30;1.00;;;;;;6233098;28;20237;-54
2022/12/03 07:54:34;;;;;;;71.93;37.00;;;-0.40;1.00;;;;;;6226234;28;20397;-53
2022/12/03 07:57:37;;;;;;;61.57;37.30;;;-0.40;1.00;;;;;;6227377;28;20756;-54
2022/12/03 08:00:40;;;;;;;66.40;36.93;;;-0.40;1.00;;;;;;6233155;28;20242;-53
2022/12/03 08:03:44;;;;;;;63.50;36.87;;;-0.40;1.00;;;;;;6231701;28;20731;-53
2022/12/03 08:06:47;;;;;;;64.17;37.70;;;-0.30;1.00;;;;;;6236682;28;20235;-54
2022/12/03 08:09:50;;;;;;;67.63;38.17;;;-0.30;1.00;;;;;;6226232;28;20227;-53
2022/12/03 08:12:54;;;;;;;68.60;36.77;;;-0.20;1.00;;;;;;6232328;28;20226;-53
2022/12/03 08:16:01;;;;;;;68.73;38.50;;;-0.50;1.00;;;;;;6231509;28;20265;-52
2022/12/03 08:19:10;;;;;;;64.27;37.17;;;-0.50;1.00;;;;;;6230884;28;20261;-54
2022/12/03 08:22:15;;;;;;;66.23;36.30;;;-0.30;1.00;;;;;;6237364;28;20843;-53
2022/12/03 08:25:22;;;;;;;77.00;37.93;;;-0.40;1.00;;;;;;6242906;28;20448;-53
2022/12/03 08:28:26;;;;;;;68.57;37.33;;;-0.40;1.00;;;;;;6229537;28;20235;-53
2022/12/03 08:31:31;;;;;;;68.63;37.87;;;-0.30;1.00;;;;;;6232844;28;20768;-53
2022/12/03 08:34:40;;;;;;;67.97;38.17;;;-0.40;1.00;;;;;;6226848;28;20276;-53
2022/12/03 08:37:43;;;;;;;72.13;38.37;;;-0.50;1.00;;;;;;6229782;28;20238;-54
2022/12/03 08:40:48;;;;;;;66.80;38.90;;;-0.30;1.00;;;;;;6233295;28;20721;-53
2022/12/03 08:43:51;;;;;;;71.43;38.83;;;-0.40;1.00;;;;;;6233323;28;20226;-54
2022/12/03 08:46:59;;;;;;;70.87;38.43;;;-0.30;1.00;;;;;;6235808;28;20321;-53
2022/12/03 08:50:24;;;;;;;74.80;39.10;;;-0.30;1.00;;;;;;6228482;28;20708;-53
2022/12/03 08:53:36;;;;;;;71.23;39.23;;;-0.40;1.00;;;;;;6209454;28;20262;-54
2022/12/03 08:56:39;;;;;;;68.57;37.90;;;-0.30;1.00;;;;;;6203575;28;20231;-53
2022/12/03 08:59:42;;;;;;;67.03;37.83;;;-0.30;1.00;;;;;;6206959;28;20219;-54
2022/12/03 09:02:51;;;;;;;69.77;39.13;;;-0.30;1.00;;;;;;6206877;28;20239;-55
2022/12/03 09:05:55;;;;;;;72.33;37.87;;;-0.30;1.00;;;;;;6206160;28;20235;-53
2022/12/03 09:08:58;;;;;;;71.03;37.73;;;-0.10;1.00;;;;;;6213841;28;20623;-53
2022/12/03 09:12:08;;;;;;;70.17;38.23;;;-0.30;1.00;;;;;;6211646;28;20428;-54
2022/12/03 09:15:11;;;;;;;72.77;38.37;;;0.00;1.00;;;;;;6212859;28;20768;-53
2022/12/03 09:18:14;;;;;;;67.43;37.63;;;-0.10;1.00;;;;;;6216870;28;20247;-53
2022/12/03 09:21:19;;;;;;;78.90;37.77;;;-0.20;1.00;;;;;;6212345;28;20251;-54
2022/12/03 09:24:22;;;;;;;63.83;37.13;;;-0.20;1.00;;;;;;6209636;28;20239;-54
2022/12/03 09:27:25;;;;;;;71.67;37.43;;;-0.10;1.00;;;;;;6217349;28;20443;-54
2022/12/03 09:30:28;;;;;;;69.00;36.57;;;0.00;1.00;;;;;;6210512;28;20231;-53
2022/12/03 09:33:31;;;;;;;72.47;37.57;;;0.30;1.00;;;;;;6209396;28;20398;-54
2022/12/03 09:36:35;;;;;;;64.10;37.20;;;0.10;1.00;;;;;;6213969;28;20239;-54
2022/12/03 09:39:38;;;;;;;71.87;38.30;;;0.20;1.00;;;;;;6207012;28;20234;-53
2022/12/03 09:42:42;;;;;;;78.60;39.83;;;0.40;1.00;;;;;;6204224;28;20701;-53
2022/12/03 09:45:45;;;;;;;68.43;37.20;;;0.30;1.00;;;;;;6214073;28;20242;-54
2022/12/03 09:48:49;;;;;;;71.07;37.40;;;0.60;1.00;;;;;;6214061;28;20235;-53
2022/12/03 09:51:56;;;;;;;66.87;37.87;;;0.50;1.00;;;;;;6217322;28;20236;-52
2022/12/03 09:55:00;;;;;;;71.03;36.97;;;0.70;1.00;;;;;;6205902;28;20723;-54
2022/12/03 09:58:09;;;;;;;63.90;35.57;;;0.60;1.00;;;;;;6209164;28;20239;-53
2022/12/03 10:01:14;;;;;;;70.37;37.33;;;0.70;1.00;;;;;;6210935;28;20262;-54
2022/12/03 10:04:18;;;;;;;71.10;38.70;;;0.60;1.00;;;;;;6202949;28;20246;-54
2022/12/03 10:07:22;;;;;;;65.10;36.83;;;0.70;1.00;;;;;;6220385;28;20817;-57
2022/12/03 10:10:25;;;;;;;70.33;35.67;;;0.70;1.00;;;;;;6213650;28;20630;-55
2022/12/03 10:13:30;;;;;;;69.40;36.97;;;0.50;1.00;;;;;;6195048;28;20236;-53
2022/12/03 10:16:41;;;;;;;66.67;36.57;;;0.50;1.00;;;;;;6216550;28;20245;-54
2022/12/03 10:19:44;;;;;;;67.57;36.17;;;0.60;1.00;;;;;;6213719;28;20619;-53
2022/12/03 10:22:49;;;;;;;67.37;35.93;;;0.50;1.00;;;;;;6208337;28;20254;-53
2022/12/03 10:25:54;;;;;;;64.87;35.20;;;0.60;1.00;;;;;;6211730;28;20254;-53
2022/12/03 10:28:57;;;;;;;69.70;36.67;;;0.30;1.00;;;;;;6213216;28;20239;-55
2022/12/03 10:32:02;;;;;;;72.07;37.77;;;0.10;1.00;;;;;;6211007;28;20231;-54
2022/12/03 10:35:11;;;;;;;68.50;35.83;;;0.20;1.00;;;;;;6209799;28;20651;-53
2022/12/03 10:38:22;;;;;;;72.07;36.93;;;0.30;1.00;;;;;;6203742;28;20756;-53
2022/12/03 10:41:28;;;;;;;66.20;35.23;;;0.00;1.00;;;;;;6203012;28;20235;-51
2022/12/03 10:44:31;;;;;;;69.57;36.10;;;0.20;1.00;;;;;;6200099;28;20244;-53
2022/12/03 10:47:34;;;;;;;73.37;35.57;;;0.20;1.00;;;;;;6204213;28;21077;-53
2022/12/03 10:50:37;;;;;;;71.87;35.73;;;0.10;1.00;;;;;;6209969;28;20228;-52
2022/12/03 10:53:42;;;;;;;63.73;35.57;;;0.30;1.00;;;;;;6206242;28;20227;-53
2022/12/03 10:56:46;;;;;;;77.40;38.37;;;0.10;1.00;;;;;;6210090;28;20426;-55
2022/12/03 10:59:49;;;;;;;69.17;36.33;;;0.10;1.00;;;;;;6211831;28;20228;-53
2022/12/03 11:02:52;;;;;;;66.43;36.30;;;0.40;1.00;;;;;;6211498;28;20234;-52
2022/12/03 11:06:01;;;;;;;66.43;36.17;;;0.20;1.00;;;;;;6206801;28;20228;-52
2022/12/03 11:09:17;;;;;;;73.77;36.97;;;0.20;1.00;;;;;;6209203;28;20698;-51
2022/12/03 11:12:22;;;;;;;72.30;36.67;;;0.40;1.00;;;;;;6207506;28;20238;-52
2022/12/03 11:15:42;;;;;;;70.70;34.93;;;0.20;1.00;;;;;;6212428;28;20231;-53
2022/12/03 11:19:01;;;;;;;70.03;36.57;;;0.20;1.00;;;;;;6210750;28;20363;-51
2022/12/03 11:22:27;;;;;;;67.50;34.83;;;0.20;1.00;;;;;;6205093;28;20746;-52
2022/12/03 11:25:50;;;;;;;70.90;36.60;;;0.40;1.00;;;;;;6208865;28;20231;-52
2022/12/03 11:28:54;;;;;;;69.37;35.83;;;0.10;1.00;;;;;;6218675;28;20253;-53
2022/12/03 11:31:57;;;;;;;68.83;35.20;;;0.20;1.00;;;;;;6205676;28;20231;-53
2022/12/03 11:35:00;;;;;;;67.40;34.37;;;0.50;1.00;;;;;;6198302;28;20239;-53
2022/12/03 11:38:39;;;;;;;65.53;34.93;;;0.30;1.00;;;;;;6209978;28;20270;-54
2022/12/03 11:42:24;;;;;;;68.90;34.30;;;0.50;1.00;;;;;;6201756;28;20568;-50
2022/12/03 11:45:34;;;;;;;63.57;34.17;;;0.50;1.00;;;;;;6213274;28;20234;-53
2022/12/03 11:48:44;;;;;;;64.80;32.90;;;0.40;1.00;;;;;;6207765;28;20235;-53
2022/12/03 11:51:47;;;;;;;65.80;33.03;;;0.40;1.00;;;;;;6213884;28;20631;-52
2022/12/03 11:54:53;;;;;;;68.00;34.53;;;0.40;1.00;;;;;;6205387;28;20224;-51
2022/12/03 11:57:58;;;;;;;69.27;33.13;;;0.40;1.00;;;;;;6206283;28;20239;-52
2022/12/03 12:01:05;;;;;;;68.57;33.47;;;0.40;1.00;;;;;;6209499;28;20243;-53
2022/12/03 12:04:27;;;;;;;69.57;34.87;;;0.40;1.00;;;;;;6206908;28;20243;-51
2022/12/03 12:07:35;;;;;;;68.40;34.30;;;0.50;1.00;;;;;;6208448;28;20235;-52
2022/12/03 12:10:44;;;;;;;64.80;33.53;;;0.50;1.00;;;;;;6209573;28;20232;-52
2022/12/03 12:13:53;;;;;;;65.80;33.47;;;0.60;1.00;;;;;;6210688;28;20227;-50
2022/12/03 12:17:02;;;;;;;68.33;33.90;;;0.60;1.00;;;;;;6206822;28;20250;-51
2022/12/03 12:20:24;;;;;;;63.00;33.73;;;0.40;1.00;;;;;;6206071;28;20327;-51
2022/12/03 12:23:29;;;;;;;65.37;35.07;;;0.30;1.00;;;;;;6215111;28;20313;-52
2022/12/03 12:26:32;;;;;;;67.67;35.67;;;0.50;1.00;;;;;;6220108;28;20270;-52
2022/12/03 12:29:35;;;;;;;64.33;34.57;;;0.30;1.00;;;;;;6217209;28;20612;-53
2022/12/03 12:32:45;;;;;;;74.53;35.90;;;0.40;1.00;;;;;;6216215;28;20227;-52
2022/12/03 12:35:48;;;;;;;62.87;32.77;;;0.40;1.00;;;;;;6233512;28;20233;-52
2022/12/03 12:38:51;;;;;;;62.80;35.57;;;0.40;1.00;;;;;;6243672;28;20238;-51
2022/12/03 12:41:55;;;;;;;69.07;34.07;;;0.40;1.00;;;;;;6239280;28;20234;-51
2022/12/03 12:45:12;;;;;;;64.03;34.77;;;0.30;1.00;;;;;;6239423;28;20242;-52
2022/12/03 12:48:23;;;;;;;65.13;31.60;;;0.40;1.00;;;;;;6244652;28;20746;-54
2022/12/03 12:51:26;;;;;;;62.47;33.57;;;0.40;1.00;;;;;;6241358;28;20458;-50
2022/12/03 12:54:28;;;;;;;70.40;34.37;;;0.40;1.00;;;;;;6247598;28;20233;-52
2022/12/03 12:57:33;;;;;;;66.47;34.03;;;0.40;1.00;;;;;;6248162;28;20239;-52
2022/12/03 13:00:37;;;;;;;63.03;34.23;;;0.40;1.00;;;;;;6230211;28;20731;-51
2022/12/03 13:03:41;;;;;;;72.43;34.60;;;0.30;1.00;;;;;;6236731;28;20238;-51
2022/12/03 13:06:46;;;;;;;66.17;32.97;;;0.40;1.00;;;;;;6234879;28;20612;-53
2022/12/03 13:09:54;;;;;;;64.07;33.50;;;0.30;1.00;;;;;;6239222;28;20231;-52
2022/12/03 13:12:57;;;;;;;64.50;33.83;;;0.30;1.00;;;;;;6228573;28;20483;-51
2022/12/03 13:16:06;;;;;;;60.97;33.47;;;0.60;1.00;;;;;;6232342;28;20245;-54
2022/12/03 13:19:21;;;;;;;69.53;34.93;;;0.40;1.00;;;;;;6225792;28;20311;-52
2022/12/03 13:22:24;;;;;;;65.23;33.40;;;0.30;1.00;;;;;;6237095;28;20246;-52
2022/12/03 13:25:35;;;;;;;69.50;34.90;;;0.20;1.00;;;;;;6235909;28;20316;-51
2022/12/03 13:29:01;;;;;;;63.40;33.70;;;0.40;1.00;;;;;;6244010;28;20254;-52
2022/12/03 13:32:13;;;;;;;67.90;34.63;;;0.40;1.00;;;;;;6232420;28;20603;-52
2022/12/03 13:35:26;;;;;;;67.47;33.87;;;0.40;1.00;;;;;;6237293;28;20234;-54
2022/12/03 13:38:30;;;;;;;64.70;32.17;;;0.20;1.00;;;;;;6235867;28;20235;-52
2022/12/03 13:44:54;;;;;;;68.77;35.33;;;0.10;1.00;;;;;;6231104;28;20374;-52
2022/12/03 13:47:59;;;;;;;70.73;34.20;;;0.30;1.00;;;;;;6239043;28;20261;-52
2022/12/03 13:51:19;;;;;;;59.17;31.67;;;0.20;1.00;;;;;;6244874;28;20234;-52
2022/12/03 13:54:26;;;;;;;69.90;34.07;;;0.40;1.00;;;;;;6233292;28;20690;-51
2022/12/03 13:57:29;;;;;;;75.33;35.10;;;0.40;1.00;;;;;;6216660;28;20243;-51
2022/12/03 14:00:32;;;;;;;73.10;34.97;;;0.30;1.00;;;;;;6216055;28;20258;-53
2022/12/03 14:03:35;;;;;;;63.70;33.10;;;0.10;1.00;;;;;;6219888;28;20239;-54
2022/12/03 14:06:39;;;;;;;69.57;33.80;;;0.30;1.00;;;;;;6212070;28;20234;-59
2022/12/03 14:09:42;;;;;;;67.50;35.33;;;0.00;1.00;;;;;;6219234;28;20253;-52
2022/12/03 14:12:45;;;;;;;66.43;32.50;;;0.10;1.00;;;;;;6236674;28;20238;-51
2022/12/03 14:15:48;;;;;;;67.60;33.27;;;0.00;1.00;;;;;;6240089;28;20235;-52
2022/12/03 14:18:51;;;;;;;66.93;33.10;;;0.10;1.00;;;;;;6241370;28;20384;-52
2022/12/03 14:21:55;;;;;;;64.93;31.13;;;0.10;1.00;;;;;;6236829;28;20239;-52
2022/12/03 14:24:58;;;;;;;61.77;33.07;;;0.10;1.00;;;;;;6242657;28;20254;-51
2022/12/03 14:28:01;;;;;;;62.50;31.57;;;0.20;1.00;;;;;;6235627;28;20643;-54
2022/12/03 14:31:04;;;;;;;68.03;33.70;;;0.30;1.00;;;;;;6242532;28;20241;-52
2022/12/03 14:34:07;;;;;;;58.67;32.13;;;-0.10;1.00;;;;;;6240347;28;20226;-52
2022/12/03 14:37:12;;;;;;;63.00;31.17;;;0.20;1.00;;;;;;6248651;28;20480;-53
2022/12/03 14:40:15;;;;;;;62.80;31.27;;;0.20;1.00;;;;;;6241267;28;20241;-48
2022/12/03 14:43:23;;;;;;;67.47;32.83;;;-0.20;1.00;;;;;;6239931;28;20243;-51
2022/12/03 14:46:26;;;;;;;58.50;30.97;;;0.00;1.00;;;;;;6244070;28;20476;-53
2022/12/03 14:49:29;;;;;;;64.97;31.37;;;0.10;1.00;;;;;;6239908;28;20604;-52
2022/12/03 14:52:33;;;;;;;55.00;30.97;;;0.10;1.00;;;;;;6240324;28;20229;-51
2022/12/03 14:55:36;;;;;;;56.10;29.40;;;0.10;1.00;;;;;;6246996;28;20222;-52
2022/12/03 14:58:39;;;;;;;60.33;30.60;;;0.30;1.00;;;;;;6244749;28;20239;-52
2022/12/03 15:01:42;;;;;;;56.07;30.27;;;0.00;1.00;;;;;;6242751;28;20234;-52
2022/12/03 15:04:45;;;;;;;54.87;30.17;;;0.20;1.00;;;;;;6240442;28;20589;-52
2022/12/03 15:07:49;;;;;;;55.17;30.13;;;0.30;1.00;;;;;;6237024;28;20235;-52
2022/12/03 15:10:52;;;;;;;58.83;30.73;;;0.00;1.00;;;;;;6238066;28;20231;-51
2022/12/03 15:13:55;;;;;;;61.07;31.03;;;0.10;1.00;;;;;;6233352;28;20241;-52
2022/12/03 15:16:58;;;;;;;51.97;30.83;;;0.30;1.00;;;;;;6230840;28;20736;-52
2022/12/03 15:20:02;;;;;;;56.53;30.80;;;0.10;1.00;;;;;;6238387;28;20253;-51
2022/12/03 15:23:07;;;;;;;57.30;30.73;;;0.00;1.00;;;;;;6240661;28;20230;-51
2022/12/03 15:26:16;;;;;;;60.43;29.77;;;0.20;1.00;;;;;;6228973;28;20230;-48
2022/12/03 15:29:19;;;;;;;59.13;30.77;;;-0.10;1.00;;;;;;6243125;28;20253;-50
2022/12/03 15:32:22;;;;;;;60.40;31.40;;;0.30;1.00;;;;;;6225445;28;20234;-50
2022/12/03 15:35:25;;;;;;;63.53;32.47;;;0.20;1.00;;;;;;6227093;28;20230;-52
2022/12/03 15:38:29;;;;;;;58.67;31.53;;;0.30;1.00;;;;;;6233197;28;20581;-50
2022/12/03 15:41:32;;;;;;;61.53;32.90;;;0.00;1.00;;;;;;6232355;28;20231;-52
2022/12/03 15:44:35;;;;;;;68.87;33.07;;;0.20;1.00;;;;;;6222967;28;20719;-51
2022/12/03 15:47:38;;;;;;;65.73;32.33;;;0.20;1.00;;;;;;6240467;28;20235;-51
2022/12/03 15:50:41;;;;;;;55.87;31.67;;;0.40;1.00;;;;;;6233500;28;20231;-52
2022/12/03 15:53:45;;;;;;;61.17;31.67;;;0.20;1.00;;;;;;6229105;28;20226;-52
2022/12/03 15:56:48;;;;;;;61.97;33.73;;;0.10;1.00;;;;;;6231759;28;20238;-53
2022/12/03 15:59:58;;;;;;;65.03;31.70;;;0.10;1.00;;;;;;6226168;28;20237;-51
2022/12/03 16:03:01;;;;;;;55.27;30.03;;;0.20;1.00;;;;;;6232036;28;20235;-52
2022/12/03 16:06:05;;;;;;;65.97;33.00;;;0.20;1.00;;;;;;6230795;28;20262;-52
2022/12/03 16:09:09;;;;;;;65.03;34.10;;;0.40;1.00;;;;;;6228034;28;20230;-52